createdAt,value
2018-09-20T00:00:51.067Z,100806.53
2018-09-20T00:03:14.956Z,100795.77
2018-09-20T00:05:38.971Z,100792.39
2018-09-20T00:08:02.847Z,100794.95
2018-09-20T00:10:26.751Z,100792.95
2018-09-20T00:12:50.675Z,100797.81
2018-09-20T00:15:14.588Z,100800.82
2018-09-20T00:17:38.535Z,100789.48
2018-09-20T00:20:02.480Z,100793.84
2018-09-20T00:22:26.444Z,100789.61
2018-09-20T00:24:50.311Z,100788.84
2018-09-20T00:27:14.228Z,100787.17
2018-09-20T00:29:38.235Z,100788.84
2018-09-20T00:32:02.188Z,100789.48
2018-09-20T00:34:26.123Z,100787.14
2018-09-20T00:36:50.012Z,100789.23
2018-09-20T00:39:14.522Z,100790.67
2018-09-20T00:41:38.488Z,100791.30
2018-09-20T00:44:02.395Z,100795.55
2018-09-20T00:46:26.318Z,100798.91
2018-09-20T00:48:50.246Z,100787.69
2018-09-20T00:51:14.142Z,100785.13
2018-09-20T00:53:38.040Z,100790.80
2018-09-20T00:56:01.999Z,100784.09
2018-09-20T00:58:25.931Z,100792.56
2018-09-20T01:00:50.180Z,100791.49
2018-09-20T01:03:14.091Z,100784.16
2018-09-20T01:05:38.051Z,100791.00
2018-09-20T01:08:01.957Z,100799.73
2018-09-20T01:10:25.939Z,100785.20
2018-09-20T01:12:50.846Z,100792.94
2018-09-20T01:15:14.726Z,100784.92
2018-09-20T01:17:38.705Z,100785.76
2018-09-20T01:20:02.630Z,100781.80
2018-09-20T01:22:26.527Z,100785.21
2018-09-20T01:24:50.430Z,100787.52
2018-09-20T01:27:14.313Z,100781.67
2018-09-20T01:29:38.299Z,100777.30
2018-09-20T01:32:02.275Z,100774.47
2018-09-20T01:34:26.191Z,100774.49
2018-09-20T01:36:50.087Z,100776.81
2018-09-20T01:39:15.648Z,100779.66
2018-09-20T01:41:39.611Z,100779.23
2018-09-20T01:44:03.524Z,100781.27
2018-09-20T01:46:27.407Z,100773.17
2018-09-20T01:48:51.377Z,100777.80
2018-09-20T01:51:15.290Z,100776.03
2018-09-20T01:53:39.174Z,100778.06
2018-09-20T01:56:03.050Z,100776.78
2018-09-20T01:58:27.163Z,100774.08
2018-09-20T02:00:51.026Z,100774.41
2018-09-20T02:03:14.939Z,100776.84
2018-09-20T02:05:38.808Z,100780.96
2018-09-20T02:08:02.804Z,100773.81
2018-09-20T02:10:26.668Z,100771.70
2018-09-20T02:12:50.581Z,100773.45
2018-09-20T02:15:14.464Z,100763.85
2018-09-20T02:17:38.373Z,100768.13
2018-09-20T02:20:02.420Z,100771.98
2018-09-20T02:22:26.326Z,100778.37
2018-09-20T02:24:50.245Z,100765.19
2018-09-20T02:27:14.146Z,100770.58
2018-09-20T02:29:38.032Z,100766.16
2018-09-20T02:32:01.911Z,100769.66
2018-09-20T02:34:25.847Z,100776.66
2018-09-20T02:36:49.758Z,100772.45
2018-09-20T02:39:13.642Z,100768.62
2018-09-20T02:41:37.722Z,100772.64
2018-09-20T02:44:01.606Z,100770.11
2018-09-20T02:46:25.487Z,100774.86
2018-09-20T02:48:49.367Z,100773.38
2018-09-20T02:51:13.247Z,100774.94
2018-09-20T02:53:37.153Z,100778.38
2018-09-20T02:56:01.028Z,100777.88
2018-09-20T02:58:24.997Z,100773.56
2018-09-20T03:00:48.994Z,100774.45
2018-09-20T03:03:12.889Z,100770.25
2018-09-20T03:05:36.789Z,100775.54
2018-09-20T03:08:00.670Z,100771.25
2018-09-20T03:10:24.571Z,100778.80
2018-09-20T03:12:48.424Z,100781.61
2018-09-20T03:15:12.426Z,100778.80
2018-09-20T03:17:36.656Z,100784.38
2018-09-20T03:20:00.542Z,100781.36
2018-09-20T03:22:24.552Z,100775.00
2018-09-20T03:24:48.423Z,100779.61
2018-09-20T03:27:12.350Z,100779.53
2018-09-20T03:29:36.224Z,100771.79
2018-09-20T03:32:00.130Z,100775.77
2018-09-20T03:34:24.039Z,100780.84
2018-09-20T03:36:48.203Z,100783.89
2018-09-20T03:39:12.605Z,100780.84
2018-09-20T03:41:36.507Z,100781.78
2018-09-20T03:44:00.400Z,100783.59
2018-09-20T03:46:24.271Z,100782.33
2018-09-20T03:48:48.148Z,100785.79
2018-09-20T03:51:12.021Z,100788.33
2018-09-20T03:53:35.938Z,100786.29
2018-09-20T03:55:59.822Z,100781.05
2018-09-20T03:58:23.713Z,100787.14
2018-09-20T04:00:47.782Z,100787.14
2018-09-20T04:03:11.720Z,100787.80
2018-09-20T04:05:35.616Z,100782.37
2018-09-20T04:07:59.465Z,100781.34
2018-09-20T04:10:23.371Z,100783.48
2018-09-20T04:12:47.442Z,100786.15
2018-09-20T04:15:11.355Z,100793.20
2018-09-20T04:17:35.257Z,100782.79
2018-09-20T04:19:59.298Z,100783.27
2018-09-20T04:22:23.210Z,100788.33
2018-09-20T04:24:47.115Z,100787.08
2018-09-20T04:27:10.985Z,100792.78
2018-09-20T04:29:35.380Z,100796.34
2018-09-20T04:31:59.473Z,100792.24
2018-09-20T04:34:23.368Z,100761.44
2018-09-20T04:36:47.474Z,100792.42
2018-09-20T04:39:11.340Z,100791.16
2018-09-20T04:41:35.229Z,100790.02
2018-09-20T04:43:59.102Z,100794.94
2018-09-20T04:46:22.994Z,100800.73
2018-09-20T04:48:46.873Z,100803.55
2018-09-20T04:51:10.768Z,100808.50
2018-09-20T04:53:34.640Z,100808.22
2018-09-20T04:55:58.930Z,100804.78
2018-09-20T04:58:22.816Z,100809.80
2018-09-20T05:00:46.689Z,100801.54
2018-09-20T05:03:10.636Z,100808.03
2018-09-20T05:05:34.602Z,100808.39
2018-09-20T05:07:58.524Z,100818.38
2018-09-20T05:10:22.407Z,100818.80
2018-09-20T05:12:46.360Z,100820.77
2018-09-20T05:15:10.232Z,100822.82
2018-09-20T05:17:34.123Z,100823.16
2018-09-20T05:19:58.026Z,100818.09
2018-09-20T05:22:21.900Z,100821.77
2018-09-20T05:24:45.796Z,100820.48
2018-09-20T05:27:09.706Z,100814.02
2018-09-20T05:29:33.644Z,100822.55
2018-09-20T05:31:57.529Z,100829.13
2018-09-20T05:34:21.434Z,100820.56
2018-09-20T05:36:45.333Z,100827.96
2018-09-20T05:39:09.935Z,100834.73
2018-09-20T05:41:33.796Z,100826.39
2018-09-20T05:43:57.747Z,100825.48
2018-09-20T05:46:21.604Z,100829.66
2018-09-20T05:48:45.495Z,100832.70
2018-09-20T05:51:09.402Z,100828.39
2018-09-20T05:53:33.288Z,100825.30
2018-09-20T05:55:57.200Z,100828.95
2018-09-20T05:58:21.160Z,100830.28
2018-09-20T06:00:45.050Z,100826.83
2018-09-20T06:03:08.977Z,100826.27
2018-09-20T06:05:32.954Z,100828.52
2018-09-20T06:07:56.794Z,100826.28
2018-09-20T06:10:20.691Z,100823.31
2018-09-20T06:12:44.590Z,100829.23
2018-09-20T06:15:08.511Z,100826.83
2018-09-20T06:17:32.440Z,100828.11
2018-09-20T06:19:56.409Z,100830.50
2018-09-20T06:22:20.339Z,100825.57
2018-09-20T06:24:44.307Z,100831.48
2018-09-20T06:27:08.617Z,100829.80
2018-09-20T06:29:32.515Z,100829.87
2018-09-20T06:31:56.501Z,100832.20
2018-09-20T06:34:20.384Z,100833.16
2018-09-20T06:36:44.293Z,100831.89
2018-09-20T06:39:10.373Z,100833.73
2018-09-20T06:41:34.246Z,100829.48
2018-09-20T06:43:58.161Z,100828.94
2018-09-20T06:46:22.072Z,100825.95
2018-09-20T06:48:46.027Z,100825.67
2018-09-20T06:51:09.912Z,100829.64
2018-09-20T06:53:33.819Z,100833.72
2018-09-20T06:55:57.721Z,100832.18
2018-09-20T06:58:22.672Z,100830.82
2018-09-20T07:00:46.552Z,100840.77
2018-09-20T07:03:10.471Z,100831.62
2018-09-20T07:05:34.372Z,100832.65
2018-09-20T07:07:58.246Z,100830.70
2018-09-20T07:10:22.327Z,100834.80
2018-09-20T07:12:46.186Z,100842.53
2018-09-20T07:15:10.409Z,100838.92
2018-09-20T07:17:34.299Z,100838.77
2018-09-20T07:20:04.789Z,100835.46
2018-09-20T07:22:28.680Z,100833.52
2018-09-20T07:24:52.576Z,100840.19
2018-09-20T07:27:16.495Z,100834.63
2018-09-20T07:29:40.583Z,100835.67
2018-09-20T07:32:04.541Z,100835.55
2018-09-20T07:34:28.726Z,100835.14
2018-09-20T07:36:52.650Z,100831.77
2018-09-20T07:39:16.525Z,100827.45
2018-09-20T07:41:40.783Z,100835.66
2018-09-20T07:44:04.743Z,100830.98
2018-09-20T07:46:28.634Z,100822.45
2018-09-20T07:48:52.526Z,100837.50
2018-09-20T07:51:16.401Z,100831.59
2018-09-20T07:53:40.353Z,100827.86
2018-09-20T07:56:04.208Z,100823.15
2018-09-20T07:58:28.090Z,100827.34
2018-09-20T08:00:51.948Z,100824.19
2018-09-20T08:03:15.855Z,100823.15
2018-09-20T08:05:39.914Z,100823.01
2018-09-20T08:08:03.823Z,100823.81
2018-09-20T08:10:27.700Z,100820.35
2018-09-20T08:12:51.803Z,100820.98
2018-09-20T08:15:15.686Z,100822.46
2018-09-20T08:17:39.597Z,100823.86
2018-09-20T08:20:03.549Z,100821.78
2018-09-20T08:22:27.449Z,100821.62
2018-09-20T08:24:51.367Z,100822.44
2018-09-20T08:27:15.246Z,100822.30
2018-09-20T08:29:39.172Z,100825.97
2018-09-20T08:32:03.079Z,100822.31
2018-09-20T08:34:27.071Z,100821.43
2018-09-20T08:36:51.009Z,100828.50
2018-09-20T08:39:15.292Z,100822.97
2018-09-20T08:41:39.232Z,100821.16
2018-09-20T08:44:03.360Z,100814.48
2018-09-20T08:46:27.256Z,100820.22
2018-09-20T08:48:51.160Z,100806.02
2018-09-20T08:51:15.107Z,100794.91
2018-09-20T08:53:39.016Z,100797.28
2018-09-20T08:56:02.930Z,100804.03
2018-09-20T08:58:26.867Z,100800.88
2018-09-20T09:00:50.836Z,100796.38
2018-09-20T09:03:14.708Z,100795.41
2018-09-20T09:05:38.904Z,100796.09
2018-09-20T09:08:02.824Z,100796.16
2018-09-20T09:10:26.751Z,100792.09
2018-09-20T09:12:50.645Z,100790.44
2018-09-20T09:15:14.583Z,100794.56
2018-09-20T09:17:38.469Z,100783.63
2018-09-20T09:20:02.394Z,100787.73
2018-09-20T09:22:26.450Z,100780.13
2018-09-20T09:24:50.342Z,100776.40
2018-09-20T09:27:14.260Z,100770.28
2018-09-20T09:29:38.214Z,100766.34
2018-09-20T09:32:02.142Z,100770.94
2018-09-20T09:34:26.095Z,100759.42
2018-09-20T09:36:49.985Z,100770.53
2018-09-20T09:39:14.371Z,100772.63
2018-09-20T09:41:38.233Z,100775.61
2018-09-20T09:44:02.137Z,100770.02
2018-09-20T09:46:26.083Z,100766.42
2018-09-20T09:48:50.031Z,100762.30
2018-09-20T09:51:13.928Z,100773.50
2018-09-20T09:53:37.835Z,100760.08
2018-09-20T09:56:01.746Z,100753.25
2018-09-20T09:58:25.675Z,100755.89
2018-09-20T10:00:49.614Z,100756.48
2018-09-20T10:03:13.535Z,100760.02
2018-09-20T10:05:37.543Z,100753.92
2018-09-20T10:08:01.501Z,100759.20
2018-09-20T10:10:25.439Z,100760.10
2018-09-20T10:12:49.447Z,100753.58
2018-09-20T10:15:13.351Z,100753.59
2018-09-20T10:17:37.325Z,100758.79
2018-09-20T10:20:01.378Z,100749.52
2018-09-20T10:22:25.256Z,100748.13
2018-09-20T10:24:49.204Z,100740.61
2018-09-20T10:27:13.129Z,100743.06
2018-09-20T10:29:37.095Z,100754.46
2018-09-20T10:32:01.009Z,100735.87
2018-09-20T10:34:24.967Z,100738.80
2018-09-20T10:36:49.015Z,100737.23
2018-09-20T10:39:13.977Z,100726.84
2018-09-20T10:41:37.900Z,100739.48
2018-09-20T10:44:01.813Z,100736.58
2018-09-20T10:46:25.745Z,100738.52
2018-09-20T10:48:49.680Z,100736.03
2018-09-20T10:51:13.593Z,100734.12
2018-09-20T10:53:37.474Z,100740.12
2018-09-20T10:56:01.402Z,100728.33
2018-09-20T10:58:25.326Z,100727.30
2018-09-20T11:00:49.326Z,100731.23
2018-09-20T11:03:13.332Z,100711.89
2018-09-20T11:05:37.191Z,100699.00
2018-09-20T11:08:01.127Z,100702.39
2018-09-20T11:10:25.060Z,100699.35
2018-09-20T11:12:49.124Z,100692.55
2018-09-20T11:15:12.998Z,100699.76
2018-09-20T11:17:36.954Z,100700.31
2018-09-20T11:20:00.859Z,100691.99
2018-09-20T11:22:24.808Z,100686.59
2018-09-20T11:24:48.684Z,100689.34
2018-09-20T11:27:12.567Z,100680.03
2018-09-20T11:29:36.496Z,100684.55
2018-09-20T11:32:00.372Z,100680.13
2018-09-20T11:34:24.464Z,100691.45
2018-09-20T11:36:48.357Z,100675.45
2018-09-20T11:39:13.683Z,100682.42
2018-09-20T11:41:37.567Z,100686.22
2018-09-20T11:44:01.527Z,100675.25
2018-09-20T11:46:25.436Z,100680.10
2018-09-20T11:48:49.371Z,100668.48
2018-09-20T11:51:14.250Z,100661.95
2018-09-20T11:53:38.138Z,100664.62
2018-09-20T11:56:02.231Z,100658.24
2018-09-20T11:58:26.104Z,100642.00
2018-09-20T12:00:50.039Z,100656.41
2018-09-20T12:03:13.951Z,100644.18
2018-09-20T12:05:37.956Z,100647.85
2018-09-20T12:08:01.835Z,100641.57
2018-09-20T12:10:25.780Z,100644.66
2018-09-20T12:12:49.757Z,100645.15
2018-09-20T12:15:13.664Z,100639.66
2018-09-20T12:17:37.668Z,100640.47
2018-09-20T12:20:01.882Z,100641.59
2018-09-20T12:22:25.746Z,100630.50
2018-09-20T12:24:49.660Z,100629.31
2018-09-20T12:27:13.536Z,100629.32
2018-09-20T12:29:37.452Z,100639.02
2018-09-20T12:32:01.371Z,100631.32
2018-09-20T12:34:25.291Z,100622.58
2018-09-20T12:36:49.189Z,100615.23
2018-09-20T12:39:14.542Z,100616.80
2018-09-20T12:41:38.622Z,100615.70
2018-09-20T12:44:02.553Z,100618.64
2018-09-20T12:46:26.464Z,100609.54
2018-09-20T12:48:50.346Z,100600.30
2018-09-20T12:51:14.298Z,100605.27
2018-09-20T12:53:38.180Z,100601.81
2018-09-20T12:56:02.143Z,100598.91
2018-09-20T12:58:31.270Z,100597.86
2018-09-20T13:00:55.244Z,100592.05
2018-09-20T13:03:19.132Z,100588.25
2018-09-20T13:05:43.012Z,100591.20
2018-09-20T13:08:07.056Z,100596.42
2018-09-20T13:10:30.969Z,100601.62
2018-09-20T13:12:54.970Z,100595.92
2018-09-20T13:15:18.824Z,100588.45
2018-09-20T13:17:42.753Z,100583.28
2018-09-20T13:20:06.967Z,100594.78
2018-09-20T13:22:30.697Z,100598.75
2018-09-20T13:24:54.585Z,100597.91
2018-09-20T13:27:18.471Z,100588.55
2018-09-20T13:29:42.389Z,100588.45
2018-09-20T13:32:06.347Z,100591.23
2018-09-20T13:34:30.258Z,100594.58
2018-09-20T13:36:54.225Z,100592.30
2018-09-20T13:39:18.159Z,100595.11
2018-09-20T13:41:42.073Z,100592.64
2018-09-20T13:44:05.976Z,100596.92
2018-09-20T13:46:29.930Z,100597.92
2018-09-20T13:48:53.868Z,100588.77
2018-09-20T13:51:17.840Z,100590.27
2018-09-20T13:53:41.761Z,100588.87
2018-09-20T13:56:05.663Z,100583.83
2018-09-20T13:58:29.616Z,100580.72
2018-09-20T14:00:53.591Z,100577.00
2018-09-20T14:03:17.503Z,100571.16
2018-09-20T14:05:41.433Z,100569.89
2018-09-20T14:08:05.359Z,100573.20
2018-09-20T14:10:29.277Z,100573.83
2018-09-20T14:12:53.187Z,100564.28
2018-09-20T14:15:17.142Z,100568.84
2018-09-20T14:17:41.015Z,100564.05
2018-09-20T14:20:04.966Z,100560.09
2018-09-20T14:22:28.885Z,100546.19
2018-09-20T14:24:52.816Z,100560.70
2018-09-20T14:27:16.714Z,100565.73
2018-09-20T14:29:40.658Z,100545.95
2018-09-20T14:32:04.585Z,100547.80
2018-09-20T14:34:28.561Z,100545.45
2018-09-20T14:36:52.627Z,100538.37
2018-09-20T14:39:16.615Z,100534.29
2018-09-20T14:41:40.975Z,100526.16
2018-09-20T14:44:04.901Z,100525.37
2018-09-20T14:46:28.874Z,100528.41
2018-09-20T14:48:52.803Z,100529.76
2018-09-20T14:51:16.764Z,100519.20
2018-09-20T14:53:40.777Z,100525.41
2018-09-20T14:56:04.693Z,100517.58
2018-09-20T14:58:31.353Z,100512.22
2018-09-20T15:00:55.285Z,100509.89
2018-09-20T15:03:19.636Z,100503.88
2018-09-20T15:05:43.590Z,100501.42
2018-09-20T15:08:07.536Z,100505.34
2018-09-20T15:10:31.593Z,100510.03
2018-09-20T15:12:55.484Z,100512.57
2018-09-20T15:15:19.386Z,100498.50
2018-09-20T15:17:43.316Z,100505.06
2018-09-20T15:20:07.225Z,100506.67
2018-09-20T15:22:31.138Z,100505.63
2018-09-20T15:24:55.020Z,100509.20
2018-09-20T15:27:18.962Z,100505.56
2018-09-20T15:29:42.858Z,100502.02
2018-09-20T15:32:07.092Z,100506.28
2018-09-20T15:34:31.010Z,100504.14
2018-09-20T15:36:55.113Z,100510.13
2018-09-20T15:39:19.035Z,100505.28
2018-09-20T15:41:42.904Z,100498.91
2018-09-20T15:44:06.909Z,100497.80
2018-09-20T15:46:30.961Z,100498.12
2018-09-20T15:48:54.942Z,100488.30
2018-09-20T15:51:18.852Z,100488.70
2018-09-20T15:53:42.777Z,100489.77
2018-09-20T15:56:06.714Z,100486.49
2018-09-20T15:58:31.637Z,100495.81
2018-09-20T16:00:55.524Z,100486.98
2018-09-20T16:03:19.388Z,100484.60
2018-09-20T16:05:43.420Z,100477.03
2018-09-20T16:08:07.299Z,100472.27
2018-09-20T16:10:31.240Z,100475.81
2018-09-20T16:12:55.146Z,100467.98
2018-09-20T16:15:19.067Z,100461.43
2018-09-20T16:17:43.063Z,100459.69
2018-09-20T16:20:07.679Z,100464.53
2018-09-20T16:22:31.573Z,100455.75
2018-09-20T16:24:55.556Z,100449.25
2018-09-20T16:27:19.493Z,100458.26
2018-09-20T16:30:24.740Z,100451.90
2018-09-20T16:33:03.850Z,100444.83
2018-09-20T16:35:35.847Z,100445.98
2018-09-20T16:38:25.243Z,100443.24
2018-09-20T16:40:51.167Z,100440.05
2018-09-20T16:43:15.170Z,100442.75
2018-09-20T16:45:39.149Z,100438.19
2018-09-20T16:48:03.117Z,100444.98
2018-09-20T16:50:27.088Z,100439.96
2018-09-20T16:52:51.080Z,100438.03
2018-09-20T16:55:14.950Z,100439.43
2018-09-20T16:57:38.866Z,100444.61
2018-09-20T17:00:02.965Z,100436.95
2018-09-20T17:02:26.908Z,100433.81
2018-09-20T17:04:52.333Z,100427.08
2018-09-20T17:07:17.376Z,100432.97
2018-09-20T17:09:41.253Z,100429.66
2018-09-20T17:12:05.275Z,100426.20
2018-09-20T17:14:29.251Z,100423.66
2018-09-20T17:16:53.116Z,100418.86
2018-09-20T17:19:17.280Z,100421.77
2018-09-20T17:21:41.192Z,100418.14
2018-09-20T17:24:05.154Z,100416.02
2018-09-20T17:26:29.096Z,100414.69
2018-09-20T17:28:53.297Z,100413.27
2018-09-20T17:31:17.229Z,100408.10
2018-09-20T17:33:41.169Z,100406.22
2018-09-20T17:36:05.163Z,100408.55
2018-09-20T17:38:29.892Z,100407.06
2018-09-20T17:40:58.075Z,100401.39
2018-09-20T17:43:27.149Z,100397.28
2018-09-20T17:45:51.098Z,100401.01
2018-09-20T17:48:15.016Z,100398.23
2018-09-20T17:50:38.945Z,100391.42
2018-09-20T17:53:03.147Z,100398.40
2018-09-20T17:55:27.584Z,100396.06
2018-09-20T17:57:52.002Z,100396.92
2018-09-20T18:00:15.934Z,100392.23
2018-09-20T18:02:39.923Z,100396.06
2018-09-20T18:05:03.912Z,100394.17
2018-09-20T18:07:27.887Z,100389.95
2018-09-20T18:09:51.818Z,100389.30
2018-09-20T18:12:15.822Z,100383.96
2018-09-20T18:14:39.808Z,100395.72
2018-09-20T18:17:03.773Z,100384.99
2018-09-20T18:19:27.666Z,100387.19
2018-09-20T18:21:51.892Z,100383.27
2018-09-20T18:24:15.892Z,100375.27
2018-09-20T18:26:39.826Z,100373.39
2018-09-20T18:29:03.798Z,100381.31
2018-09-20T18:31:27.692Z,100375.39
2018-09-20T18:33:51.742Z,100380.22
2018-09-20T18:36:15.668Z,100386.79
2018-09-20T18:38:39.646Z,100374.85
2018-09-20T18:41:03.596Z,100374.86
2018-09-20T18:43:27.509Z,100371.15
2018-09-20T18:45:52.085Z,100375.18
2018-09-20T18:48:16.014Z,100371.67
2018-09-20T18:50:39.964Z,100376.92
2018-09-20T18:53:03.872Z,100372.43
2018-09-20T18:55:27.846Z,100368.82
2018-09-20T18:57:51.943Z,100369.16
2018-09-20T19:00:15.869Z,100353.26
2018-09-20T19:02:39.911Z,100359.72
2018-09-20T19:05:03.838Z,100361.14
2018-09-20T19:07:27.881Z,100350.55
2018-09-20T19:10:22.189Z,100351.29
2018-09-20T19:12:46.195Z,100355.73
2018-09-20T19:15:10.736Z,100354.53
2018-09-20T19:17:34.585Z,100353.20
2018-09-20T19:19:58.519Z,100351.13
2018-09-20T19:22:22.447Z,100343.16
2018-09-20T19:24:46.415Z,100348.63
2018-09-20T19:27:10.360Z,100345.57
2018-09-20T19:29:34.288Z,100343.95
2018-09-20T19:31:58.243Z,100344.72
2018-09-20T19:34:22.199Z,100343.80
2018-09-20T19:36:46.037Z,100343.61
2018-09-20T19:39:11.241Z,100336.34
2018-09-20T19:41:35.107Z,100337.83
2018-09-20T19:43:59.040Z,100337.77
2018-09-20T19:46:23.005Z,100338.16
2018-09-20T19:48:46.913Z,100333.30
2018-09-20T19:51:10.838Z,100336.48
2018-09-20T19:53:34.730Z,100330.69
2018-09-20T19:55:58.756Z,100334.09
2018-09-20T19:58:22.649Z,100331.80
2018-09-20T20:00:46.559Z,100334.45
2018-09-20T20:03:10.496Z,100332.36
2018-09-20T20:05:34.436Z,100335.75
2018-09-20T20:07:58.478Z,100328.22
2018-09-20T20:10:22.353Z,100328.42
2018-09-20T20:12:46.236Z,100321.33
2018-09-20T20:15:10.180Z,100317.81
2018-09-20T20:17:34.091Z,100307.52
2018-09-20T20:19:58.017Z,100315.59
2018-09-20T20:22:21.916Z,100315.92
2018-09-20T20:24:45.781Z,100307.76
2018-09-20T20:27:09.730Z,100306.86
2018-09-20T20:29:33.613Z,100299.56
2018-09-20T20:31:57.521Z,100295.99
2018-09-20T20:34:21.424Z,100293.73
2018-09-20T20:36:45.430Z,100295.98
2018-09-20T20:39:10.085Z,100287.72
2018-09-20T20:41:33.933Z,100288.90
2018-09-20T20:43:57.819Z,100282.91
2018-09-20T20:46:21.790Z,100282.32
2018-09-20T20:48:45.771Z,100282.81
2018-09-20T20:51:09.767Z,100276.33
2018-09-20T20:53:33.701Z,100268.73
2018-09-20T20:55:57.602Z,100260.73
2018-09-20T20:58:21.489Z,100270.76
2018-09-20T21:00:45.320Z,100261.25
2018-09-20T21:03:09.261Z,100262.73
2018-09-20T21:05:33.113Z,100266.42
2018-09-20T21:07:57.108Z,100261.72
2018-09-20T21:10:20.997Z,100257.85
2018-09-20T21:12:44.945Z,100258.92
2018-09-20T21:15:08.826Z,100259.23
2018-09-20T21:17:32.753Z,100261.14
2018-09-20T21:19:56.672Z,100254.53
2018-09-20T21:22:20.544Z,100254.44
2018-09-20T21:24:44.452Z,100252.64
2018-09-20T21:27:08.331Z,100245.19
2018-09-20T21:29:32.334Z,100243.32
2018-09-20T21:31:56.311Z,100243.32
2018-09-20T21:34:20.337Z,100241.48
2018-09-20T21:36:44.413Z,100236.67
2018-09-20T21:39:10.598Z,100235.30
2018-09-20T21:41:34.670Z,100228.69
2018-09-20T21:43:58.589Z,100224.17
2018-09-20T21:46:22.483Z,100224.66
2018-09-20T21:48:46.382Z,100221.20
2018-09-20T21:51:10.266Z,100220.11
2018-09-20T21:53:34.205Z,100211.22
2018-09-20T21:55:58.072Z,100200.81
2018-09-20T21:58:21.965Z,100197.81
2018-09-20T22:00:46.272Z,100190.69
2018-09-20T22:03:10.140Z,100187.13
2018-09-20T22:05:35.159Z,100182.83
2018-09-20T22:07:59.069Z,100188.18
2018-09-20T22:10:22.982Z,100182.35
2018-09-20T22:12:47.044Z,100182.35
2018-09-20T22:15:13.660Z,100176.84
2018-09-20T22:17:37.530Z,100169.17
2018-09-20T22:20:01.582Z,100167.53
2018-09-20T22:22:25.425Z,100154.20
2018-09-20T22:24:49.298Z,100155.16
2018-09-20T22:27:13.173Z,100156.90
2018-09-20T22:29:37.043Z,100165.17
2018-09-20T22:32:00.941Z,100157.52
2018-09-20T22:34:24.816Z,100148.75
2018-09-20T22:36:48.715Z,100147.01
2018-09-20T22:39:12.574Z,100142.14
2018-09-20T22:41:36.438Z,100148.42
2018-09-20T22:44:00.352Z,100147.48
2018-09-20T22:46:24.210Z,100148.27
2018-09-20T22:48:48.066Z,100142.85
2018-09-20T22:51:11.968Z,100141.52
2018-09-20T22:53:35.804Z,100138.05
2018-09-20T22:55:59.671Z,100136.36
2018-09-20T22:58:23.568Z,100135.92
2018-09-20T23:00:47.433Z,100138.33
2018-09-20T23:03:11.511Z,100135.23
2018-09-20T23:05:35.405Z,100139.94
2018-09-20T23:07:59.467Z,100131.44
2018-09-20T23:10:23.315Z,100124.59
2018-09-20T23:12:47.239Z,100121.84
2018-09-20T23:15:11.096Z,100121.59
2018-09-20T23:17:34.962Z,100114.59
2018-09-20T23:19:58.965Z,100111.16
2018-09-20T23:22:22.850Z,100108.27
2018-09-20T23:24:46.719Z,100103.31
2018-09-20T23:27:10.630Z,100095.09
2018-09-20T23:29:34.474Z,100093.44
2018-09-20T23:31:58.448Z,100097.10
2018-09-20T23:34:22.356Z,100087.79
2018-09-20T23:36:46.448Z,100084.03
2018-09-20T23:39:11.962Z,100082.91
2018-09-20T23:41:35.848Z,100087.92
2018-09-20T23:43:59.723Z,100084.50
2018-09-20T23:46:23.648Z,100075.53
2018-09-20T23:48:47.517Z,100080.94
2018-09-20T23:51:11.492Z,100074.29
2018-09-20T23:53:35.363Z,100065.14
2018-09-20T23:55:59.257Z,100065.59
2018-09-20T23:58:23.152Z,100052.62
